Time;durP1;ratioP1;P1;durP2;ratioP2;P2;SDS_P1;SDS_P2;PMS_P1;PMS_P2;Temp;Humidity;BMP_temperature;BMP_pressure;BME280_temperature;BME280_humidity;BME280_pressure;Samples;Min_cycle;Max_cycle;Signal;HPM_P1;HPM_P2
2023/05/30 00:00:51;;;;;;;33.58;15.73;;;;;;;29.33;80.96;100802.19;5109096;27;69141;-43
2023/05/30 00:03:23;;;;;;;28.23;16.20;;;;;;;29.36;80.63;100792.84;5108828;27;65835;-43
2023/05/30 00:05:54;;;;;;;21.30;16.42;;;;;;;29.02;80.22;100715.63;5108700;27;69375;-43
2023/05/30 00:08:26;;;;;;;25.73;17.88;;;;;;;29.68;79.72;100815.44;5104966;27;65896;-43
2023/05/30 00:10:57;;;;;;;33.10;21.38;;;;;;;29.48;79.50;100784.94;5107500;27;70321;-42
2023/05/30 00:13:28;;;;;;;37.60;21.83;;;;;;;29.68;79.85;100812.75;5117245;27;66093;-43
2023/05/30 00:16:01;;;;;;;30.02;20.52;;;;;;;29.83;79.98;100842.22;5110722;27;69812;-42
2023/05/30 00:18:35;;;;;;;36.28;20.20;;;;;;;29.89;79.74;100835.13;5111729;27;66653;-41
2023/05/30 00:21:09;;;;;;;29.10;19.23;;;;;;;29.68;79.86;100782.19;5110693;27;70140;-41
2023/05/30 00:23:40;;;;;;;29.85;18.55;;;;;;;30.05;80.01;100826.50;5109884;27;66563;-45
2023/05/30 00:26:13;;;;;;;32.58;19.08;;;;;;;30.05;79.10;100818.41;5117831;27;69797;-40
2023/05/30 00:28:50;;;;;;;24.80;18.30;;;;;;;30.10;79.57;100824.00;5113340;27;66691;-40
2023/05/30 00:31:21;;;;;;;26.50;17.75;;;;;;;30.13;79.57;100820.84;5120531;27;69925;-42
2023/05/30 00:33:54;;;;;;;32.50;17.88;;;;;;;30.13;79.30;100826.25;5112648;27;65381;-43
2023/05/30 00:36:25;;;;;;;17.42;15.18;;;;;;;30.06;76.54;100795.69;5111716;27;69858;-45
2023/05/30 00:38:56;;;;;;;15.35;13.85;;;;;;;30.17;75.99;100822.09;5118404;27;67923;-43
2023/05/30 00:41:28;;;;;;;20.30;13.57;;;;;;;29.98;75.34;100799.50;5086435;27;70052;-44
2023/05/30 00:43:58;;;;;;;14.67;13.17;;;;;;;29.83;74.78;100753.81;5106164;27;66242;-43
2023/05/30 00:46:30;;;;;;;13.90;12.55;;;;;;;29.62;75.03;100710.84;5102109;27;71402;-44
2023/05/30 00:49:01;;;;;;;13.32;11.93;;;;;;;30.25;74.92;100808.31;5103571;27;66149;-44
2023/05/30 00:51:33;;;;;;;13.10;11.77;;;;;;;30.14;74.31;100806.25;5112813;27;69312;-43
2023/05/30 00:54:03;;;;;;;13.23;11.85;;;;;;;30.17;74.48;100805.84;5121013;27;66262;-44
2023/05/30 00:56:36;;;;;;;12.23;11.07;;;;;;;30.26;74.24;100815.41;5107990;27;68936;-44
2023/05/30 00:59:07;;;;;;;12.25;11.05;;;;;;;30.27;74.32;100811.63;5117950;27;66857;-43
2023/05/30 01:01:39;;;;;;;15.65;11.13;;;;;;;30.24;74.30;100817.47;5109173;27;70290;-42
2023/05/30 01:04:10;;;;;;;12.83;10.80;;;;;;;30.00;74.14;100778.47;5106692;27;65203;-43
2023/05/30 01:06:46;;;;;;;23.70;14.57;;;;;;;30.30;77.07;100821.19;5109199;27;44169;-45
2023/05/30 01:09:18;;;;;;;20.73;13.85;;;;;;;30.20;77.34;100810.84;5108344;27;67049;-44
2023/05/30 01:12:25;;;;;;;19.58;14.18;;;;;;;30.04;77.44;100784.28;5107090;27;69633;-43
2023/05/30 01:15:08;;;;;;;22.48;13.35;;;;;;;30.20;77.46;100802.72;5105079;27;66293;-43
2023/05/30 01:18:11;;;;;;;20.92;13.45;;;;;;;30.22;77.63;100814.16;5111391;27;70099;-44
2023/05/30 01:20:46;;;;;;;;;;;;;;;30.06;78.05;100811.94;5112052;27;65445;-43
2023/05/30 01:23:45;;;;;;;17.05;12.55;;;;;;;30.24;77.97;100803.13;5112207;27;70571;-44
2023/05/30 01:26:31;;;;;;;16.48;12.60;;;;;;;30.20;78.74;100794.59;5103776;27;66652;-43
2023/05/30 01:29:04;;;;;;;15.60;12.93;;;;;;;30.30;78.27;100809.53;5105077;27;71550;-44
2023/05/30 01:31:35;;;;;;;15.32;11.80;;;;;;;30.29;78.06;100803.31;5113795;27;66366;-44
2023/05/30 01:34:07;;;;;;;13.85;12.45;;;;;;;30.19;78.23;100782.09;5111164;27;69963;-44
2023/05/30 01:36:38;;;;;;;17.38;12.88;;;;;;;30.37;77.65;100804.91;5105402;27;66098;-44
2023/05/30 01:39:12;;;;;;;17.77;12.55;;;;;;;30.09;77.57;100754.72;5106788;27;70411;-44
2023/05/30 01:41:53;;;;;;;20.52;12.45;;;;;;;30.40;77.31;100799.06;5110131;27;66036;-44
2023/05/30 01:44:56;;;;;;;16.23;13.67;;;;;;;30.36;77.67;100795.13;5107229;27;69735;-44
2023/05/30 01:47:43;;;;;;;15.77;13.02;;;;;;;30.44;76.96;100806.53;5105155;27;66318;-44
2023/05/30 01:50:17;;;;;;;17.52;13.13;;;;;;;30.46;77.51;100800.91;5099625;27;70403;-44
2023/05/30 01:52:54;;;;;;;17.15;12.85;;;;;;;29.05;76.86;100575.63;5104141;27;66459;-45
2023/05/30 01:55:26;;;;;;;17.00;13.57;;;;;;;30.48;77.20;100801.53;5102808;27;69973;-46
2023/05/30 01:57:58;;;;;;;14.88;13.40;;;;;;;30.44;77.14;100789.47;5105551;27;64574;-44
2023/05/30 02:00:31;;;;;;;19.00;13.65;;;;;;;30.46;77.48;100788.19;5107007;27;69770;-44
2023/05/30 02:03:03;;;;;;;18.90;12.90;;;;;;;30.42;77.58;100783.44;5106357;27;66423;-43
2023/05/30 02:05:34;;;;;;;18.00;12.60;;;;;;;30.57;77.47;100799.38;5111562;27;69860;-44
2023/05/30 02:08:06;;;;;;;20.30;12.45;;;;;;;30.61;77.51;100806.81;5106787;27;65401;-44
2023/05/30 02:10:37;;;;;;;17.58;13.40;;;;;;;30.63;77.11;100799.31;5112894;27;69951;-44
2023/05/30 02:13:08;;;;;;;29.58;14.30;;;;;;;30.50;77.17;100772.34;5108972;27;66018;-44
2023/05/30 02:15:40;;;;;;;18.05;12.68;;;;;;;30.23;77.35;100731.13;5111075;27;71488;-43
2023/05/30 02:18:12;;;;;;;20.58;13.25;;;;;;;30.65;77.09;100791.78;5113810;27;66545;-45
2023/05/30 02:20:43;;;;;;;16.05;13.52;;;;;;;30.69;77.25;100793.00;5108537;27;69610;-44
2023/05/30 02:23:14;;;;;;;23.65;12.35;;;;;;;30.50;76.78;100769.63;5114401;27;67542;-43
2023/05/30 02:25:46;;;;;;;16.50;11.68;;;;;;;30.76;77.02;100790.25;5113137;27;70290;-44
2023/05/30 02:28:16;;;;;;;12.63;11.32;;;;;;;30.78;76.75;100796.25;5111255;27;65646;-45
2023/05/30 02:30:48;;;;;;;;;;;;;;;30.38;77.03;100752.44;5101361;27;70206;-43
2023/05/30 02:33:18;;;;;;;23.27;11.68;;;;;;;30.82;76.99;100791.28;5104784;27;66664;-43
2023/05/30 02:35:49;;;;;;;15.07;12.05;;;;;;;30.86;76.59;100787.06;5115851;27;69479;-43
2023/05/30 02:38:20;;;;;;;26.13;12.40;;;;;;;30.88;76.27;100796.63;5115984;27;65527;-43
2023/05/30 02:40:52;;;;;;;17.13;11.65;;;;;;;30.77;76.11;100772.13;5098173;27;69110;-43
2023/05/30 02:43:25;;;;;;;23.70;12.23;;;;;;;30.86;75.96;100777.03;5105980;27;66300;-44
2023/05/30 02:45:56;;;;;;;18.38;10.57;;;;;;;30.96;75.74;100784.69;5103466;27;70223;-44
2023/05/30 02:48:27;;;;;;;21.75;11.82;;;;;;;31.01;75.95;100782.13;5106573;27;66814;-42
2023/05/30 02:51:00;;;;;;;17.58;11.13;;;;;;;31.02;75.62;100775.66;5117171;27;70610;-43
2023/05/30 02:53:31;;;;;;;19.95;11.70;;;;;;;31.06;75.52;100782.25;5109834;27;66410;-44
2023/05/30 02:56:02;;;;;;;20.95;14.05;;;;;;;31.09;76.32;100784.56;5115686;27;71168;-44
2023/05/30 02:58:59;;;;;;;23.30;13.05;;;;;;;31.16;76.15;100782.59;5107445;27;66173;-44
2023/05/30 03:01:38;;;;;;;14.68;13.00;;;;;;;31.20;76.02;100782.97;5105090;27;69563;-42
2023/05/30 03:04:10;;;;;;;24.83;13.93;;;;;;;31.23;75.89;100787.97;5112733;27;66069;-43
2023/05/30 03:06:49;;;;;;;31.35;14.18;;;;;;;31.21;75.96;100779.22;5107006;27;69534;-44
2023/05/30 03:09:25;;;;;;;18.02;12.65;;;;;;;31.14;75.58;100783.88;5120022;27;66339;-43
2023/05/30 03:11:56;;;;;;;19.20;14.02;;;;;;;31.15;75.97;100764.69;5106468;27;70078;-46
2023/05/30 03:14:27;;;;;;;21.80;13.20;;;;;;;31.13;75.32;100761.38;5113370;27;65543;-43
2023/05/30 03:16:58;;;;;;;20.08;13.95;;;;;;;31.25;75.25;100775.00;5103848;27;70317;-43
2023/05/30 03:19:30;;;;;;;17.40;13.98;;;;;;;31.24;75.26;100769.81;5111229;27;67138;-44
2023/05/30 03:22:06;;;;;;;19.38;13.25;;;;;;;31.21;74.23;100745.88;5100000;27;70646;-48
2023/05/30 03:24:37;;;;;;;17.83;12.63;;;;;;;31.29;74.34;100753.69;5110716;27;65487;-47
2023/05/30 03:27:08;;;;;;;19.60;12.73;;;;;;;31.31;74.38;100757.00;5117396;27;70289;-45
2023/05/30 03:29:40;;;;;;;19.23;14.02;;;;;;;30.98;74.62;100698.63;5106691;27;66338;-43
2023/05/30 03:32:12;;;;;;;17.27;12.73;;;;;;;31.38;73.84;100752.38;5109372;27;70117;-43
2023/05/30 03:34:45;;;;;;;;;;;;;;;31.29;74.37;100761.84;5106817;27;66312;-42
2023/05/30 03:37:20;;;;;;;18.60;12.60;;;;;;;31.39;74.09;100749.41;5093227;27;69558;-43
2023/05/30 03:39:50;;;;;;;21.60;12.73;;;;;;;31.25;73.78;100714.53;5113760;27;66454;-42
2023/05/30 03:42:23;;;;;;;16.10;11.55;;;;;;;31.36;73.63;100730.91;5083870;27;69920;-42
2023/05/30 03:44:54;;;;;;;18.77;12.50;;;;;;;31.34;73.44;100718.59;5107683;27;66036;-43
2023/05/30 03:47:25;;;;;;;16.63;12.07;;;;;;;31.44;73.68;100737.91;5113362;27;69930;-45
2023/05/30 03:49:56;;;;;;;19.33;12.30;;;;;;;31.47;73.87;100734.72;5111565;27;65164;-45
2023/05/30 03:52:27;;;;;;;23.45;11.88;;;;;;;31.50;73.41;100734.28;5104668;27;70652;-45
2023/05/30 03:54:57;;;;;;;16.75;11.85;;;;;;;30.98;73.60;100649.84;5107595;27;66703;-43
2023/05/30 03:57:28;;;;;;;15.40;11.15;;;;;;;31.54;73.22;100719.22;5110058;27;70180;-44
2023/05/30 03:59:59;;;;;;;22.30;11.47;;;;;;;31.47;73.53;100702.19;5113632;27;65744;-44
2023/05/30 04:02:39;;;;;;;22.15;11.82;;;;;;;31.41;73.20;100686.03;5114961;27;70338;-42
2023/05/30 04:05:10;;;;;;;17.35;9.90;;;;;;;31.58;72.80;100712.28;5109640;27;67257;-43
2023/05/30 04:07:43;;;;;;;29.20;10.65;;;;;;;31.58;72.82;100709.56;5113345;27;69848;-44
2023/05/30 04:10:13;;;;;;;24.02;9.65;;;;;;;31.58;73.08;100714.97;5112630;27;65213;-42
2023/05/30 04:12:44;;;;;;;18.63;9.98;;;;;;;31.50;72.69;100698.22;5109823;27;69321;-46
2023/05/30 04:15:15;;;;;;;16.05;8.68;;;;;;;31.42;72.16;100685.78;5108104;27;65741;-42
2023/05/30 04:17:46;;;;;;;17.67;9.30;;;;;;;31.60;71.73;100717.47;5108781;27;70554;-42
2023/05/30 04:20:17;;;;;;;10.98;9.02;;;;;;;31.64;70.99;100707.00;5107282;27;66053;-41
2023/05/30 04:22:48;;;;;;;18.95;9.65;;;;;;;31.65;70.54;100697.78;5114136;27;70022;-43
2023/05/30 04:25:19;;;;;;;13.57;8.93;;;;;;;31.65;70.65;100692.38;5114332;27;65512;-43
2023/05/30 04:27:50;;;;;;;16.92;8.50;;;;;;;31.48;70.30;100663.22;5114091;27;69663;-43
2023/05/30 04:30:21;;;;;;;19.63;9.10;;;;;;;31.66;70.06;100672.34;5110468;27;68602;-42
2023/05/30 04:32:55;;;;;;;15.13;8.97;;;;;;;31.68;70.09;100683.75;5115505;27;70697;-43
2023/05/30 04:35:27;;;;;;;9.35;8.15;;;;;;;31.70;69.63;100678.94;5107836;27;66897;-43
2023/05/30 04:38:00;;;;;;;16.10;8.73;;;;;;;31.79;69.66;100672.16;5107248;27;69738;-43
2023/05/30 04:40:32;;;;;;;7.65;6.18;;;;;;;31.82;70.12;100671.69;5104674;27;66737;-44
2023/05/30 04:43:04;;;;;;;6.57;5.97;;;;;;;31.92;70.08;100661.13;5110340;27;70271;-44
2023/05/30 04:45:36;;;;;;;6.90;5.90;;;;;;;31.98;69.92;100649.34;5119547;27;66274;-45
2023/05/30 04:48:09;;;;;;;6.38;5.82;;;;;;;32.04;69.52;100642.97;5105044;27;69994;-44
2023/05/30 04:50:40;;;;;;;6.57;5.93;;;;;;;32.10;69.49;100643.94;5106968;27;66376;-45
2023/05/30 04:53:11;;;;;;;8.10;6.00;;;;;;;31.96;69.07;100608.06;5104475;27;69351;-43
2023/05/30 04:55:45;;;;;;;7.35;5.97;;;;;;;32.12;68.73;100616.53;5109492;27;66652;-46
2023/05/30 04:58:16;;;;;;;6.78;5.70;;;;;;;32.24;68.91;100623.66;5108395;27;69887;-45
2023/05/30 05:00:48;;;;;;;6.37;5.87;;;;;;;32.26;68.65;100620.69;5106334;27;66562;-50
2023/05/30 05:03:21;;;;;;;14.45;6.18;;;;;;;32.24;67.70;100617.41;5112652;27;70622;-46
2023/05/30 05:05:52;;;;;;;12.65;7.57;;;;;;;32.17;68.18;100603.94;5104937;27;64818;-43
2023/05/30 05:08:26;;;;;;;19.07;7.90;;;;;;;32.15;68.43;100600.66;5111973;27;69665;-46
2023/05/30 05:10:57;;;;;;;10.25;7.80;;;;;;;32.15;68.46;100599.78;5104024;27;66868;-43
2023/05/30 05:13:28;;;;;;;18.05;7.25;;;;;;;31.89;68.58;100539.47;5103130;27;69885;-53
2023/05/30 05:16:00;;;;;;;14.85;6.80;;;;;;;32.13;68.36;100572.09;5116900;27;67073;-45
2023/05/30 05:18:32;;;;;;;10.30;6.40;;;;;;;32.17;68.27;100581.41;5113644;27;70789;-44
2023/05/30 05:21:02;;;;;;;15.35;7.47;;;;;;;31.99;68.12;100553.31;5107098;27;65480;-45
2023/05/30 05:23:33;;;;;;;14.27;7.00;;;;;;;32.12;68.46;100573.13;5115182;27;69889;-42
2023/05/30 05:26:04;;;;;;;13.38;6.88;;;;;;;32.15;68.07;100578.09;5115535;27;66264;-43
2023/05/30 05:28:35;;;;;;;8.88;6.82;;;;;;;32.23;68.09;100585.88;5113606;27;70992;-44
2023/05/30 05:31:06;;;;;;;9.48;6.80;;;;;;;32.22;68.41;100573.38;5117758;27;66323;-44
2023/05/30 05:33:37;;;;;;;14.30;6.43;;;;;;;32.18;68.44;100586.59;5110471;27;70082;-45
2023/05/30 05:36:07;;;;;;;11.13;6.40;;;;;;;32.27;68.30;100579.75;5109610;27;65783;-43
2023/05/30 05:38:38;;;;;;;9.80;6.37;;;;;;;32.08;68.98;100544.84;5108175;27;70897;-44
2023/05/30 05:41:09;;;;;;;12.95;6.30;;;;;;;32.26;68.53;100563.69;5116666;27;66721;-45
2023/05/30 05:43:40;;;;;;;11.52;5.13;;;;;;;32.36;68.60;100547.63;5111574;27;69987;-42
2023/05/30 05:46:12;;;;;;;14.18;6.30;;;;;;;32.25;68.14;100537.63;5110742;27;65312;-42
2023/05/30 05:48:43;;;;;;;10.10;6.63;;;;;;;32.34;66.84;100566.03;5106715;27;69592;-42
2023/05/30 05:51:14;;;;;;;7.95;6.07;;;;;;;32.20;65.09;100535.59;5113300;27;65743;-43
2023/05/30 05:53:45;;;;;;;8.27;6.27;;;;;;;32.08;63.30;100539.41;5116486;27;70715;-44
2023/05/30 05:56:16;;;;;;;23.67;5.85;;;;;;;31.88;62.33;100529.72;5112030;27;64746;-43
2023/05/30 05:58:47;;;;;;;10.65;5.32;;;;;;;30.99;61.21;100391.47;5104705;27;69124;-43
2023/05/30 06:01:17;;;;;;;8.70;5.65;;;;;;;31.72;60.16;100519.56;5111360;27;65978;-44
2023/05/30 06:03:48;;;;;;;5.53;5.03;;;;;;;31.61;59.46;100513.88;5118473;27;71231;-42
2023/05/30 06:06:19;;;;;;;5.00;4.60;;;;;;;31.58;58.48;100514.34;5112022;27;66651;-46
2023/05/30 06:08:50;;;;;;;4.50;4.10;;;;;;;31.52;57.16;100504.44;5104379;27;70552;-44
2023/05/30 06:11:21;;;;;;;4.13;3.83;;;;;;;31.30;56.88;100479.75;5105728;27;65967;-43
2023/05/30 06:13:52;;;;;;;4.32;3.97;;;;;;;31.42;56.19;100498.75;5115402;27;68250;-43
2023/05/30 06:16:23;;;;;;;5.97;3.97;;;;;;;31.21;55.41;100473.03;5109252;27;65365;-44
2023/05/30 06:18:54;;;;;;;8.00;4.03;;;;;;;31.34;54.95;100496.34;5107181;27;69193;-44
2023/05/30 06:21:25;;;;;;;3.88;3.58;;;;;;;31.31;54.16;100491.41;5103993;27;66535;-44
2023/05/30 06:23:55;;;;;;;4.25;3.85;;;;;;;31.21;53.75;100477.63;5112779;27;69780;-43
2023/05/30 06:26:26;;;;;;;5.38;3.90;;;;;;;31.28;53.26;100475.63;5102027;27;66606;-43
2023/05/30 06:28:59;;;;;;;4.20;3.80;;;;;;;31.23;52.95;100467.34;5111833;27;69234;-44
2023/05/30 06:31:30;;;;;;;3.03;2.83;;;;;;;31.38;54.28;100465.06;5114365;27;66457;-47
2023/05/30 06:34:02;;;;;;;3.17;2.90;;;;;;;31.32;52.59;100444.28;5103284;27;70136;-44
2023/05/30 06:36:33;;;;;;;10.10;2.90;;;;;;;31.41;51.74;100453.75;5107764;27;65047;-44
2023/05/30 06:39:04;;;;;;;5.85;3.13;;;;;;;31.46;51.64;100445.75;5112977;27;69974;-51
2023/05/30 06:41:34;;;;;;;9.13;2.90;;;;;;;31.34;50.77;100431.31;5111217;27;66614;-46
2023/05/30 06:44:06;;;;;;;5.40;3.03;;;;;;;31.52;50.30;100444.81;5105413;27;69872;-44
2023/05/30 06:46:41;;;;;;;6.00;3.28;;;;;;;31.54;49.36;100467.09;5115701;27;65654;-48
2023/05/30 06:49:12;;;;;;;3.33;2.97;;;;;;;31.42;49.49;100460.81;5109330;27;70029;-43
2023/05/30 06:51:43;;;;;;;3.40;3.10;;;;;;;31.58;49.02;100481.81;5114345;27;65099;-44
2023/05/30 06:54:14;;;;;;;3.20;3.00;;;;;;;31.58;48.91;100481.81;5112029;27;69560;-43
2023/05/30 06:56:47;;;;;;;5.53;3.10;;;;;;;31.59;48.56;100467.22;5105999;27;65398;-44
2023/05/30 06:59:17;;;;;;;5.20;3.28;;;;;;;31.47;48.60;100447.38;5109713;27;70759;-44
2023/05/30 07:01:48;;;;;;;4.13;3.42;;;;;;;31.61;48.28;100475.91;5119312;27;65333;-43
2023/05/30 07:04:19;;;;;;;5.57;3.20;;;;;;;31.63;47.95;100478.41;5108001;27;71622;-43
2023/05/30 07:06:50;;;;;;;4.43;3.60;;;;;;;31.66;48.12;100477.13;5108874;27;65058;-43
2023/05/30 07:09:22;;;;;;;14.73;3.27;;;;;;;31.69;47.39;100482.06;5112567;27;69553;-42
2023/05/30 07:11:52;;;;;;;6.10;3.45;;;;;;;31.76;48.41;100493.59;5113719;27;65904;-43
2023/05/30 07:14:24;;;;;;;17.37;3.80;;;;;;;31.70;47.95;100481.00;5122564;27;69912;-43
2023/05/30 07:16:55;;;;;;;9.02;3.50;;;;;;;31.58;47.29;100454.69;5116814;27;66131;-43
2023/05/30 07:19:26;;;;;;;22.58;4.00;;;;;;;31.69;47.01;100471.22;5112363;27;69014;-45
2023/05/30 07:21:56;;;;;;;16.13;3.50;;;;;;;31.72;47.60;100487.00;5108578;27;65902;-44
2023/05/30 07:24:27;;;;;;;17.73;3.40;;;;;;;31.64;47.06;100468.38;5113063;27;70217;-42
2023/05/30 07:26:58;;;;;;;7.25;3.70;;;;;;;31.65;46.92;100448.31;5116473;27;65746;-43
2023/05/30 07:29:29;;;;;;;16.17;4.33;;;;;;;31.67;46.90;100435.38;5117221;27;69834;-41
2023/05/30 07:32:00;;;;;;;6.78;4.00;;;;;;;31.67;46.27;100424.53;5112699;27;64984;-42
2023/05/30 07:34:31;;;;;;;8.00;4.05;;;;;;;31.82;46.55;100439.25;5114182;27;69497;-44
2023/05/30 07:37:01;;;;;;;12.32;4.07;;;;;;;31.78;46.05;100440.78;5108294;27;65991;-40
2023/05/30 07:39:32;;;;;;;8.85;4.57;;;;;;;31.72;45.85;100440.91;5111555;27;71888;-42
2023/05/30 07:42:03;;;;;;;5.32;4.60;;;;;;;31.78;45.51;100448.09;5107233;27;66546;-43
2023/05/30 07:44:34;;;;;;;11.90;4.60;;;;;;;31.52;45.28;100420.41;5108143;27;70242;-44
2023/05/30 07:47:06;;;;;;;21.85;6.60;;;;;;;31.63;46.27;100458.59;5109540;27;65297;-45
2023/05/30 07:49:37;;;;;;;9.32;6.05;;;;;;;31.67;47.40;100451.63;5106525;27;69382;-43
2023/05/30 07:52:10;;;;;;;8.45;5.78;;;;;;;31.77;48.58;100452.69;5103938;27;67775;-42
2023/05/30 07:54:41;;;;;;;10.07;6.13;;;;;;;31.77;49.13;100435.59;5112324;27;70000;-43
2023/05/30 07:57:13;;;;;;;6.80;6.15;;;;;;;31.92;50.02;100444.09;5112233;27;66388;-42
2023/05/30 07:59:44;;;;;;;10.05;5.05;;;;;;;31.93;50.52;100439.50;5112379;27;69952;-42
2023/05/30 08:02:15;;;;;;;12.30;5.27;;;;;;;32.01;51.36;100439.97;5112112;27;66276;-42
2023/05/30 08:04:48;;;;;;;11.27;5.50;;;;;;;31.95;51.74;100416.50;5105660;27;69895;-43
2023/05/30 08:07:20;;;;;;;;;;;;;;;31.94;53.78;100436.56;5112303;27;66651;-43
2023/05/30 08:09:50;;;;;;;16.08;8.13;;;;;;;32.16;53.95;100428.63;5114153;27;69112;-43
2023/05/30 08:12:24;;;;;;;18.73;8.73;;;;;;;32.21;54.43;100430.63;5107125;27;66329;-43
2023/05/30 08:14:58;;;;;;;14.88;7.20;;;;;;;32.20;55.07;100385.53;5113514;27;70118;-43
2023/05/30 08:17:29;;;;;;;12.25;7.88;;;;;;;32.48;54.84;100412.75;5105115;27;65670;-43
2023/05/30 08:20:01;;;;;;;8.17;7.40;;;;;;;32.56;54.90;100405.25;5118262;27;69974;-43
2023/05/30 08:22:31;;;;;;;7.93;7.22;;;;;;;32.67;54.97;100407.09;5108624;27;67076;-43
2023/05/30 08:25:02;;;;;;;9.30;8.32;;;;;;;32.75;55.13;100403.16;5115889;27;70024;-44
2023/05/30 08:27:34;;;;;;;8.03;7.33;;;;;;;32.45;55.54;100336.34;5111428;27;65099;-44
2023/05/30 08:30:06;;;;;;;11.95;7.68;;;;;;;32.26;55.32;100303.13;5116231;27;69896;-43
2023/05/30 08:32:37;;;;;;;8.50;7.57;;;;;;;32.78;55.95;100381.75;5104039;27;66188;-45
2023/05/30 08:35:09;;;;;;;11.02;8.40;;;;;;;32.90;56.30;100393.38;5119067;27;69310;-43
2023/05/30 08:37:39;;;;;;;8.40;7.73;;;;;;;32.93;55.94;100395.59;5108551;27;65610;-43
2023/05/30 08:40:13;;;;;;;11.53;8.57;;;;;;;32.14;56.59;100256.25;5099075;27;69699;-43
2023/05/30 08:42:44;;;;;;;9.85;8.95;;;;;;;32.99;56.52;100384.81;5110413;27;66040;-43
2023/05/30 08:45:15;;;;;;;15.05;8.52;;;;;;;32.87;56.63;100358.53;5115008;27;69980;-43
2023/05/30 08:47:47;;;;;;;;;;;;;;;32.76;58.00;100375.72;5110283;27;66171;-43
2023/05/30 08:50:21;;;;;;;13.82;10.77;;;;;;;32.59;59.74;100345.03;5106675;27;70748;-43
2023/05/30 08:52:53;;;;;;;22.40;12.15;;;;;;;32.66;61.15;100368.25;5107966;27;65936;-43
2023/05/30 08:55:31;;;;;;;20.55;10.00;;;;;;;32.68;61.79;100376.97;5118150;27;70288;-44
2023/05/30 08:58:09;;;;;;;17.45;9.43;;;;;;;32.69;62.79;100383.22;5112966;27;66169;-42
2023/05/30 09:00:42;;;;;;;25.63;9.85;;;;;;;32.52;62.97;100360.66;5111274;27;69498;-42
2023/05/30 09:03:15;;;;;;;30.00;9.45;;;;;;;32.37;63.07;100348.41;5109299;27;65917;-42
2023/05/30 09:05:47;;;;;;;24.42;8.75;;;;;;;32.60;63.52;100387.41;5110805;27;70500;-42
2023/05/30 09:08:18;;;;;;;17.67;8.85;;;;;;;32.55;63.78;100382.72;5108294;27;65884;-42
2023/05/30 09:10:51;;;;;;;16.02;8.23;;;;;;;32.51;64.03;100364.44;5115906;27;69455;-42
2023/05/30 09:13:22;;;;;;;17.00;7.97;;;;;;;32.04;63.94;100284.84;5107743;27;65875;-42
2023/05/30 09:15:53;;;;;;;14.68;9.02;;;;;;;32.45;64.41;100345.28;5115136;27;69967;-42
2023/05/30 09:18:24;;;;;;;8.90;7.97;;;;;;;32.64;64.44;100369.56;5114749;27;67161;-41
2023/05/30 09:20:55;;;;;;;14.57;9.15;;;;;;;32.58;65.12;100375.97;5103934;27;70607;-42
2023/05/30 09:23:26;;;;;;;;;;;;;;;32.39;65.55;100376.13;5103910;27;65191;-42
2023/05/30 09:26:00;;;;;;;14.38;7.55;;;;;;;32.59;65.47;100383.03;5109569;27;70209;-44
2023/05/30 09:28:32;;;;;;;15.77;8.02;;;;;;;32.53;65.02;100367.72;5104719;27;66509;-43
2023/05/30 09:31:04;;;;;;;15.50;7.53;;;;;;;32.55;65.18;100365.59;5109494;27;69518;-42
2023/05/30 09:33:49;;;;;;;9.52;7.00;;;;;;;31.55;64.68;100189.50;5107335;27;66220;-43
2023/05/30 09:36:23;;;;;;;8.68;7.25;;;;;;;32.78;63.87;100379.03;5107067;27;71295;-43
2023/05/30 09:39:05;;;;;;;8.02;6.47;;;;;;;32.54;63.92;100336.78;5113490;27;66674;-45
2023/05/30 09:41:36;;;;;;;14.65;7.75;;;;;;;32.80;63.66;100379.63;5105049;27;70370;-43
2023/05/30 09:44:12;;;;;;;8.77;7.40;;;;;;;32.12;64.04;100274.66;5100446;27;66082;-43
2023/05/30 09:46:43;;;;;;;10.15;7.60;;;;;;;32.67;64.93;100386.19;5107194;27;70433;-43
2023/05/30 09:49:14;;;;;;;13.60;8.07;;;;;;;32.72;66.18;100394.41;5105934;27;65682;-42
2023/05/30 09:51:45;;;;;;;18.53;8.33;;;;;;;32.28;67.03;100342.53;5102200;27;69393;-43
2023/05/30 09:54:16;;;;;;;13.18;8.10;;;;;;;32.61;66.36;100387.16;5106797;27;66105;-43
2023/05/30 09:56:47;;;;;;;17.00;7.95;;;;;;;32.71;66.90;100405.53;5100239;27;69683;-44
2023/05/30 09:59:18;;;;;;;16.15;8.52;;;;;;;32.66;66.87;100405.44;5105069;27;66282;-43
2023/05/30 10:01:49;;;;;;;15.43;8.10;;;;;;;32.71;66.15;100408.25;5104901;27;71913;-46
2023/05/30 10:04:27;;;;;;;17.67;9.20;;;;;;;32.71;66.72;100413.69;5104892;27;67213;-43
2023/05/30 10:06:58;;;;;;;16.80;8.70;;;;;;;32.66;67.07;100406.25;5112621;27;69482;-42
2023/05/30 10:09:29;;;;;;;15.47;8.23;;;;;;;32.53;67.00;100389.44;5111572;27;66592;-42
2023/05/30 10:12:03;;;;;;;25.48;8.90;;;;;;;32.55;67.10;100392.75;5109450;27;71147;-43
2023/05/30 10:14:34;;;;;;;19.92;9.48;;;;;;;32.61;67.56;100402.63;5107467;27;65672;-43
2023/05/30 10:17:09;;;;;;;16.17;8.75;;;;;;;32.01;67.45;100312.47;5105104;27;70100;-43
2023/05/30 10:19:59;;;;;;;18.30;9.80;;;;;;;32.62;67.55;100440.41;5108501;27;66717;-43
2023/05/30 10:22:35;;;;;;;10.93;9.82;;;;;;;31.97;67.56;100333.00;5099668;27;69574;-43
2023/05/30 10:25:08;;;;;;;19.80;10.85;;;;;;;32.30;68.15;100391.16;5109279;27;67023;-43
2023/05/30 10:27:46;;;;;;;27.83;10.10;;;;;;;31.94;68.16;100338.91;5107600;27;70312;-51
2023/05/30 10:30:23;;;;;;;17.55;8.60;;;;;;;31.99;67.79;100336.31;5108791;27;65844;-43
2023/05/30 10:33:00;;;;;;;11.13;7.47;;;;;;;32.79;66.87;100466.78;5121658;27;69233;-43
2023/05/30 10:35:32;;;;;;;10.05;7.18;;;;;;;32.15;66.75;100369.16;5115293;27;65596;-43
2023/05/30 10:38:13;;;;;;;14.23;8.10;;;;;;;32.11;66.43;100374.22;5110810;27;69995;-44
2023/05/30 10:40:53;;;;;;;11.95;7.57;;;;;;;32.77;67.03;100483.34;5120793;27;66003;-43
2023/05/30 10:43:33;;;;;;;12.07;7.65;;;;;;;32.79;67.20;100507.53;5112546;27;69825;-43
2023/05/30 10:46:28;;;;;;;9.35;7.53;;;;;;;32.84;66.78;100494.03;5117235;27;66598;-43
2023/05/30 10:49:18;;;;;;;9.98;7.30;;;;;;;32.73;67.17;100498.44;5117561;27;70123;-43
2023/05/30 10:52:05;;;;;;;12.70;7.53;;;;;;;32.34;66.78;100438.47;5111080;27;66288;-43
2023/05/30 10:54:37;;;;;;;7.82;7.07;;;;;;;32.86;66.49;100509.03;5110567;27;70434;-42
2023/05/30 10:57:28;;;;;;;7.93;7.13;;;;;;;32.69;67.21;100498.13;5101693;27;66196;-43
2023/05/30 11:00:18;;;;;;;10.25;7.40;;;;;;;31.45;67.22;100302.31;5106981;27;69168;-44
2023/05/30 11:02:54;;;;;;;7.43;6.72;;;;;;;32.04;66.65;100387.94;5107436;27;66297;-44
2023/05/30 11:05:32;;;;;;;8.88;7.28;;;;;;;32.83;66.71;100520.38;5111088;27;70675;-44
2023/05/30 11:08:02;;;;;;;12.20;7.20;;;;;;;32.83;66.78;100520.38;5106748;27;65772;-44
2023/05/30 11:10:33;;;;;;;8.05;7.28;;;;;;;32.82;66.66;100524.19;5114255;27;69383;-43
2023/05/30 11:13:14;;;;;;;7.32;6.68;;;;;;;32.71;66.52;100528.59;5110482;27;65683;-43
2023/05/30 11:15:46;;;;;;;7.63;6.82;;;;;;;32.81;66.73;100527.94;5110351;27;70457;-44
2023/05/30 11:18:18;;;;;;;7.40;6.68;;;;;;;32.72;66.67;100523.97;5107671;27;66209;-43
2023/05/30 11:20:53;;;;;;;6.97;6.45;;;;;;;32.65;66.98;100499.69;5114336;27;70087;-44
2023/05/30 11:23:27;;;;;;;7.18;6.55;;;;;;;32.69;66.91;100519.03;5108858;27;66142;-43
2023/05/30 11:25:58;;;;;;;7.43;6.78;;;;;;;32.77;66.71;100513.22;5113286;27;69852;-43
2023/05/30 11:28:36;;;;;;;7.73;6.93;;;;;;;32.21;67.24;100425.19;5110651;27;67936;-43
2023/05/30 11:31:19;;;;;;;7.10;6.50;;;;;;;32.71;67.23;100506.03;5109833;27;70058;-44
2023/05/30 11:33:51;;;;;;;8.77;6.50;;;;;;;32.78;66.92;100512.13;5107960;27;66605;-43
2023/05/30 11:36:22;;;;;;;8.50;6.63;;;;;;;32.76;66.92;100508.81;5117878;27;69642;-43
2023/05/30 11:38:53;;;;;;;6.43;5.93;;;;;;;32.75;67.07;100512.63;5118423;27;65672;-44
2023/05/30 11:41:26;;;;;;;6.90;6.40;;;;;;;32.69;67.15;100508.16;5109303;27;69895;-43
2023/05/30 11:43:57;;;;;;;7.70;6.18;;;;;;;32.64;67.00;100502.63;5104902;27;66115;-43
2023/05/30 11:46:28;;;;;;;13.15;7.07;;;;;;;32.72;67.35;100502.25;5107541;27;70232;-43